weather.gov     
National Weather Service

Terminal Aerodrome Forecast
NWS Homepage
This page is being discontinued on March 12, 2014.
The same data is available at this site. Please update your bookmarks.
Thank you, and we apologize for the inconvenience.
Please send an email to SR-SRH.Webmaster@noaa.gov with any concerns.


Current Version
Previous Version:    01  02  03  04  05  06  07  08  09  10  11  12  13  14  15  16  17  18  19  20  21  22  
[Printable]
345
FTUS44 KLZK 302300
TAFADF
TAF
KADF 302331Z 3100/3124 VRB05KT P6SM -RA SCT020 BKN050 OVC080
      TEMPO 3103/3106 5SM -SHRA BR BKN025 OVC040
     FM310600 VRB05KT 5SM -SHRA BR SCT025 OVC040
      TEMPO 3108/3111 2SM RA BR OVC015
     FM311100 13006KT 4SM -RA BR OVC015
     FM311400 13007KT P6SM -RA SCT025 OVC035 PROB30 3114/3118 5SM
      -RA BR OVC025=


U.S. Dept. of Commerce
NOAA National Weather Service
1325 East West Highway
Silver Spring, MD 20910
E-mail: w-nws.webmaster@noaa.gov
Page last modified: May 16, 2007
NATIONAL WEATHER SERVICE: for Safety, for Work, for Fun - FOR LIFE